createdAt,value
2023-05-24T00:00:23.496Z,21.00
2023-05-24T00:02:50.438Z,20.90
2023-05-24T00:05:18.919Z,20.90
2023-05-24T00:07:45.816Z,20.90
2023-05-24T00:10:12.635Z,20.90
2023-05-24T00:12:39.360Z,20.90
2023-05-24T00:15:06.800Z,20.90
2023-05-24T00:17:34.801Z,20.90
2023-05-24T00:20:01.609Z,20.90
2023-05-24T00:22:28.373Z,20.90
2023-05-24T00:24:55.106Z,20.90
2023-05-24T00:27:21.861Z,20.90
2023-05-24T00:29:48.635Z,20.90
2023-05-24T00:32:15.415Z,20.80
2023-05-24T00:34:42.195Z,20.80
2023-05-24T00:37:10.703Z,20.80
2023-05-24T00:39:37.452Z,20.80
2023-05-24T00:42:04.933Z,20.80
2023-05-24T00:44:31.770Z,20.80
2023-05-24T00:46:58.946Z,20.80
2023-05-24T00:49:26.476Z,20.80
2023-05-24T00:51:54.463Z,20.80
2023-05-24T00:54:21.509Z,20.80
2023-05-24T00:56:49.184Z,20.80
2023-05-24T00:59:16.630Z,20.70
2023-05-24T01:01:46.965Z,20.70
2023-05-24T01:04:14.555Z,20.70
2023-05-24T01:07:07.686Z,20.70
2023-05-24T01:09:43.177Z,20.70
2023-05-24T01:12:32.310Z,20.70
2023-05-24T01:15:20.184Z,20.70
2023-05-24T01:17:52.070Z,20.70
2023-05-24T01:20:20.778Z,20.70
2023-05-24T01:23:13.861Z,20.70
2023-05-24T01:25:59.132Z,20.60
2023-05-24T01:28:27.102Z,20.60
2023-05-24T01:30:55.755Z,20.60
2023-05-24T01:33:24.108Z,20.60
2023-05-24T01:35:50.994Z,20.60
2023-05-24T01:38:17.719Z,20.60
2023-05-24T01:40:47.209Z,20.60
2023-05-24T01:43:16.948Z,20.60
2023-05-24T01:46:03.092Z,20.60
2023-05-24T01:48:47.152Z,20.60
2023-05-24T01:51:18.593Z,20.60
2023-05-24T01:53:48.950Z,20.50
2023-05-24T01:56:19.496Z,20.50
2023-05-24T01:58:48.578Z,20.50
2023-05-24T02:01:15.677Z,20.50
2023-05-24T02:03:42.607Z,20.50
2023-05-24T02:06:10.614Z,20.50
2023-05-24T02:08:39.848Z,20.50
2023-05-24T02:11:06.680Z,20.50
2023-05-24T02:13:33.416Z,20.50
2023-05-24T02:16:00.306Z,20.50
2023-05-24T02:18:27.086Z,20.50
2023-05-24T02:20:53.944Z,20.50
2023-05-24T02:23:22.383Z,20.40
2023-05-24T02:25:49.174Z,20.50
2023-05-24T02:28:16.047Z,20.50
2023-05-24T02:30:44.708Z,20.40
2023-05-24T02:33:12.442Z,20.40
2023-05-24T02:35:41.352Z,20.40
2023-05-24T02:38:09.698Z,20.40
2023-05-24T02:40:36.541Z,20.40
2023-05-24T02:43:04.066Z,20.40
2023-05-24T02:45:30.969Z,20.40
2023-05-24T02:47:57.708Z,20.40
2023-05-24T02:50:24.570Z,20.40
2023-05-24T02:52:51.596Z,20.40
2023-05-24T02:55:18.812Z,20.40
2023-05-24T02:57:45.594Z,20.40
2023-05-24T03:00:13.658Z,20.40
2023-05-24T03:02:41.905Z,20.40
2023-05-24T03:05:09.165Z,20.40
2023-05-24T03:07:36.454Z,20.40
2023-05-24T03:10:03.440Z,20.30
2023-05-24T03:12:31.102Z,20.30
2023-05-24T03:14:57.810Z,20.30
2023-05-24T03:17:24.577Z,20.30
2023-05-24T03:19:52.904Z,20.30
2023-05-24T03:22:20.057Z,20.30
2023-05-24T03:24:47.210Z,20.30
2023-05-24T03:27:14.185Z,20.30
2023-05-24T03:29:40.992Z,20.20
2023-05-24T03:32:07.996Z,20.30
2023-05-24T03:34:34.722Z,20.20
2023-05-24T03:37:02.454Z,20.20
2023-05-24T03:39:29.313Z,20.20
2023-05-24T03:42:13.841Z,20.20
2023-05-24T03:44:40.893Z,20.20
2023-05-24T03:47:07.772Z,20.20
2023-05-24T03:49:34.616Z,20.20
2023-05-24T03:52:01.811Z,20.20
2023-05-24T03:54:28.614Z,20.20
2023-05-24T03:56:55.390Z,20.20
2023-05-24T03:59:22.780Z,20.20
2023-05-24T04:01:49.604Z,20.20
2023-05-24T04:04:16.576Z,20.20
2023-05-24T04:06:43.361Z,20.20
2023-05-24T04:09:10.202Z,20.20
2023-05-24T04:11:37.028Z,20.10
2023-05-24T04:14:03.870Z,20.10
2023-05-24T04:16:34.127Z,20.10
2023-05-24T04:19:03.760Z,20.20
2023-05-24T04:21:31.956Z,20.10
2023-05-24T04:24:01.457Z,20.10
2023-05-24T04:26:28.250Z,20.10
2023-05-24T04:28:55.243Z,20.10
2023-05-24T04:31:22.216Z,20.10
2023-05-24T04:33:50.078Z,20.10
2023-05-24T04:36:17.789Z,20.10
2023-05-24T04:38:46.155Z,20.10
2023-05-24T04:41:13.511Z,20.10
2023-05-24T04:43:40.825Z,20.10
2023-05-24T04:46:09.114Z,20.10
2023-05-24T04:48:36.498Z,20.10
2023-05-24T04:51:03.352Z,20.00
2023-05-24T04:53:30.449Z,20.10
2023-05-24T04:55:57.269Z,20.00
2023-05-24T04:58:24.090Z,20.00
2023-05-24T05:00:51.183Z,20.00
2023-05-24T05:03:18.197Z,20.00
2023-05-24T05:05:46.477Z,20.00
2023-05-24T05:08:14.070Z,20.00
2023-05-24T05:10:41.114Z,20.00
2023-05-24T05:13:07.980Z,20.00
2023-05-24T05:15:34.766Z,20.00
2023-05-24T05:18:01.525Z,20.00
2023-05-24T05:20:28.364Z,20.00
2023-05-24T05:22:55.168Z,20.00
2023-05-24T05:25:22.035Z,20.00
2023-05-24T05:27:48.850Z,20.00
2023-05-24T05:30:15.963Z,20.00
2023-05-24T05:32:42.891Z,20.00
2023-05-24T05:35:09.980Z,20.00
2023-05-24T05:37:36.733Z,20.00
2023-05-24T05:40:04.724Z,20.00
2023-05-24T05:42:31.533Z,20.00
2023-05-24T05:44:58.389Z,20.00
2023-05-24T05:47:25.226Z,20.00
2023-05-24T05:49:51.991Z,20.00
2023-05-24T05:52:18.762Z,20.00
2023-05-24T05:54:45.565Z,20.00
2023-05-24T05:57:12.827Z,20.00
2023-05-24T05:59:39.565Z,20.00
2023-05-24T06:02:07.039Z,20.00
2023-05-24T06:04:34.482Z,20.00
2023-05-24T06:07:01.433Z,20.00
2023-05-24T06:09:28.269Z,20.00
2023-05-24T06:11:55.273Z,20.00
2023-05-24T06:14:22.160Z,20.00
2023-05-24T06:16:49.026Z,20.00
2023-05-24T06:19:16.622Z,20.00
2023-05-24T06:21:47.774Z,20.00
2023-05-24T06:24:15.317Z,20.00
2023-05-24T06:26:42.196Z,20.00
2023-05-24T06:29:09.724Z,20.00
2023-05-24T06:31:36.521Z,20.00
2023-05-24T06:34:04.612Z,20.00
2023-05-24T06:36:43.163Z,20.00
2023-05-24T06:39:10.785Z,20.10
2023-05-24T06:41:38.966Z,20.10
2023-05-24T06:44:05.743Z,20.10
2023-05-24T06:46:32.787Z,20.10
2023-05-24T06:48:59.802Z,20.10
2023-05-24T06:51:26.707Z,20.10
2023-05-24T06:53:53.614Z,20.10
2023-05-24T06:56:20.417Z,20.10
2023-05-24T06:58:47.536Z,20.10
2023-05-24T07:01:15.253Z,20.10
2023-05-24T07:03:42.596Z,20.10
2023-05-24T07:06:12.134Z,20.10
2023-05-24T07:08:38.867Z,20.10
2023-05-24T07:11:06.224Z,20.10
2023-05-24T07:13:33.152Z,20.10
2023-05-24T07:15:59.989Z,20.10
2023-05-24T07:18:26.737Z,20.10
2023-05-24T07:20:54.830Z,20.10
2023-05-24T07:23:21.615Z,20.10
2023-05-24T07:25:49.218Z,20.10
2023-05-24T07:28:17.984Z,20.20
2023-05-24T07:30:45.315Z,20.20
2023-05-24T07:33:12.445Z,20.20
2023-05-24T07:35:39.608Z,20.20
2023-05-24T07:38:06.910Z,20.20
2023-05-24T07:40:33.843Z,20.20
2023-05-24T07:43:00.920Z,20.20
2023-05-24T07:45:27.806Z,20.20
2023-05-24T07:47:56.718Z,20.20
2023-05-24T07:50:23.988Z,20.20
2023-05-24T07:52:51.355Z,20.20
2023-05-24T07:55:18.220Z,20.20
2023-05-24T07:57:44.908Z,20.20
2023-05-24T08:00:14.631Z,20.20
2023-05-24T08:02:43.109Z,20.20
2023-05-24T08:05:13.832Z,20.20
2023-05-24T08:07:41.861Z,20.20
2023-05-24T08:10:12.551Z,20.20
2023-05-24T08:12:39.796Z,20.30
2023-05-24T08:15:07.487Z,20.30
2023-05-24T08:17:34.411Z,20.20
2023-05-24T08:20:01.360Z,20.30
2023-05-24T08:22:28.124Z,20.30
2023-05-24T08:24:54.909Z,20.30
2023-05-24T08:27:22.549Z,20.30
2023-05-24T08:29:49.398Z,20.30
2023-05-24T08:32:16.353Z,20.30
2023-05-24T08:34:44.242Z,20.30
2023-05-24T08:37:13.141Z,20.30
2023-05-24T08:39:41.337Z,20.30
2023-05-24T08:42:10.154Z,20.30
2023-05-24T08:45:04.691Z,20.30
2023-05-24T08:47:32.364Z,20.30
2023-05-24T08:49:59.523Z,20.30
2023-05-24T08:52:28.492Z,20.30
2023-05-24T08:54:56.190Z,20.30
2023-05-24T08:57:22.926Z,20.40
2023-05-24T08:59:49.793Z,20.40
2023-05-24T09:02:17.653Z,20.40
2023-05-24T09:04:47.213Z,20.40
2023-05-24T09:07:14.787Z,20.40
2023-05-24T09:09:45.224Z,20.40
2023-05-24T09:12:28.356Z,20.40
2023-05-24T09:15:04.140Z,20.40
2023-05-24T09:17:33.613Z,20.40
2023-05-24T09:20:01.478Z,20.40
2023-05-24T09:22:30.568Z,20.40
2023-05-24T09:25:05.728Z,20.40
2023-05-24T09:27:34.987Z,20.40
2023-05-24T09:30:05.005Z,20.40
2023-05-24T09:32:32.101Z,20.40
2023-05-24T09:35:00.136Z,20.40
2023-05-24T09:37:32.121Z,20.40
2023-05-24T09:39:59.666Z,20.40
2023-05-24T09:42:28.812Z,20.40
2023-05-24T09:45:00.976Z,20.50
2023-05-24T09:47:35.076Z,20.40
2023-05-24T09:50:03.602Z,20.50
2023-05-24T09:52:32.113Z,20.50
2023-05-24T09:55:00.988Z,20.50
2023-05-24T09:57:28.238Z,20.50
2023-05-24T09:59:54.996Z,20.50
2023-05-24T10:02:23.831Z,20.50
2023-05-24T10:05:00.054Z,20.50
2023-05-24T10:07:27.363Z,20.50
2023-05-24T10:09:55.195Z,20.40
2023-05-24T10:12:23.380Z,20.50
2023-05-24T10:14:51.932Z,20.50
2023-05-24T10:17:18.852Z,20.50
2023-05-24T10:19:46.255Z,20.50
2023-05-24T10:22:15.750Z,20.40
2023-05-24T10:24:47.765Z,20.40
2023-05-24T10:27:23.491Z,20.50
2023-05-24T10:30:13.811Z,20.40
2023-05-24T10:32:43.633Z,20.40
2023-05-24T10:35:12.434Z,20.40
2023-05-24T10:37:39.412Z,20.40
2023-05-24T10:40:09.990Z,20.40
2023-05-24T10:42:39.086Z,20.40
2023-05-24T10:45:39.518Z,20.40
2023-05-24T10:48:15.538Z,20.40
2023-05-24T10:50:43.628Z,20.40
2023-05-24T10:53:22.516Z,20.40
2023-05-24T10:55:57.180Z,20.40
2023-05-24T10:58:48.631Z,20.40
2023-05-24T11:01:36.026Z,20.40
2023-05-24T11:04:16.828Z,20.40
2023-05-24T11:06:48.471Z,20.40
2023-05-24T11:09:17.074Z,20.40
2023-05-24T11:11:50.106Z,20.40
2023-05-24T11:14:22.936Z,20.40
2023-05-24T11:16:51.324Z,20.40
2023-05-24T11:19:30.872Z,20.40
2023-05-24T11:22:01.285Z,20.40
2023-05-24T11:24:29.129Z,20.40
2023-05-24T11:26:57.981Z,20.50
2023-05-24T11:29:25.118Z,20.40
2023-05-24T11:31:54.369Z,20.40
2023-05-24T11:34:21.828Z,20.50
2023-05-24T11:36:49.292Z,20.40
2023-05-24T11:39:16.725Z,20.50
2023-05-24T11:41:44.037Z,20.50
2023-05-24T11:44:12.166Z,20.50
2023-05-24T11:46:43.171Z,20.40
2023-05-24T11:49:15.107Z,20.50
2023-05-24T11:51:42.650Z,20.50
2023-05-24T11:54:09.945Z,20.50
2023-05-24T11:56:36.939Z,20.50
2023-05-24T11:59:09.054Z,20.50
2023-05-24T12:01:35.967Z,20.50
2023-05-24T12:04:02.828Z,20.50
2023-05-24T12:06:41.352Z,20.50
2023-05-24T12:09:10.720Z,20.50
2023-05-24T12:11:46.698Z,20.50
2023-05-24T12:14:14.827Z,20.50
2023-05-24T12:16:45.829Z,20.50
2023-05-24T12:19:32.465Z,20.50
2023-05-24T12:22:01.766Z,20.50
2023-05-24T12:24:29.354Z,20.50
2023-05-24T12:27:06.910Z,20.50
2023-05-24T12:29:42.131Z,20.50
2023-05-24T12:32:13.689Z,20.50
2023-05-24T12:34:42.710Z,20.50
2023-05-24T12:37:10.767Z,20.40
2023-05-24T12:39:39.763Z,20.50
2023-05-24T12:42:07.023Z,20.50
2023-05-24T12:44:37.638Z,20.50
2023-05-24T12:47:06.693Z,20.50
2023-05-24T12:49:34.299Z,20.50
2023-05-24T12:52:01.982Z,20.50
2023-05-24T12:54:29.519Z,20.50
2023-05-24T12:56:57.755Z,20.50
2023-05-24T12:59:26.001Z,20.50
2023-05-24T13:01:53.303Z,20.50
2023-05-24T13:04:23.406Z,20.50
2023-05-24T13:06:50.268Z,20.50
2023-05-24T13:09:21.641Z,20.50
2023-05-24T13:11:49.132Z,20.50
2023-05-24T13:14:16.755Z,20.50
2023-05-24T13:16:44.293Z,20.50
2023-05-24T13:19:11.891Z,20.50
2023-05-24T13:21:39.423Z,20.50
2023-05-24T13:24:06.960Z,20.50
2023-05-24T13:26:38.175Z,20.50
2023-05-24T13:31:39.308Z,20.50
2023-05-24T13:34:10.895Z,20.50
2023-05-24T13:36:38.421Z,20.50
2023-05-24T13:39:15.520Z,20.40
2023-05-24T13:41:44.031Z,20.40
2023-05-24T13:44:15.578Z,20.40
2023-05-24T13:46:42.920Z,20.40
2023-05-24T13:49:10.910Z,20.40
2023-05-24T13:51:38.840Z,20.40
2023-05-24T13:54:07.403Z,20.40
2023-05-24T13:56:34.939Z,20.40
2023-05-24T13:59:03.648Z,20.40
2023-05-24T14:01:31.199Z,20.40
2023-05-24T14:03:58.503Z,20.40
2023-05-24T14:06:25.330Z,20.40
2023-05-24T14:08:52.277Z,20.40
2023-05-24T14:11:19.783Z,20.30
2023-05-24T14:16:18.281Z,20.40
2023-05-24T14:18:45.786Z,20.40
2023-05-24T14:21:12.549Z,20.40
2023-05-24T14:23:39.307Z,20.30
2023-05-24T14:26:06.673Z,20.40
2023-05-24T14:28:33.461Z,20.40
2023-05-24T14:31:00.380Z,20.40
2023-05-24T14:33:27.192Z,20.30
2023-05-24T14:35:54.332Z,20.40
2023-05-24T14:38:23.247Z,20.40
2023-05-24T14:40:51.204Z,20.30
2023-05-24T14:43:18.148Z,20.40
2023-05-24T14:45:45.310Z,20.40
2023-05-24T14:48:12.854Z,20.40
2023-05-24T14:50:40.698Z,20.40
2023-05-24T14:53:11.700Z,20.40
2023-05-24T14:55:41.015Z,20.40
2023-05-24T14:58:14.060Z,20.40
2023-05-24T15:00:42.631Z,20.40
2023-05-24T15:03:12.368Z,20.40
2023-05-24T15:05:39.880Z,20.40
2023-05-24T15:08:07.883Z,20.40
2023-05-24T15:10:34.764Z,20.40
2023-05-24T15:13:03.647Z,20.40
2023-05-24T15:15:30.518Z,20.40
2023-05-24T15:17:59.530Z,20.40
2023-05-24T15:20:26.583Z,20.40
2023-05-24T15:22:53.698Z,20.40
2023-05-24T15:25:20.892Z,20.40
2023-05-24T15:27:47.830Z,20.40
2023-05-24T15:30:14.963Z,20.40
2023-05-24T15:32:41.806Z,20.40
2023-05-24T15:35:09.311Z,20.40
2023-05-24T15:37:36.108Z,20.50
2023-05-24T15:40:02.879Z,20.50
2023-05-24T15:42:30.986Z,20.50
2023-05-24T15:44:58.001Z,20.50
2023-05-24T15:47:30.188Z,20.50
2023-05-24T15:49:57.107Z,20.50
2023-05-24T15:52:24.175Z,20.50
2023-05-24T15:54:51.106Z,20.50
2023-05-24T15:57:17.859Z,20.50
2023-05-24T15:59:44.742Z,20.50
2023-05-24T16:02:11.512Z,20.50
2023-05-24T16:04:39.137Z,20.50
2023-05-24T16:07:06.707Z,20.50
2023-05-24T16:09:33.535Z,20.50
2023-05-24T16:12:01.291Z,20.50
2023-05-24T16:14:28.272Z,20.50
2023-05-24T16:16:58.021Z,20.50
2023-05-24T16:19:25.717Z,20.60
2023-05-24T16:21:52.497Z,20.60
2023-05-24T16:24:20.272Z,20.60
2023-05-24T16:26:47.029Z,20.60
2023-05-24T16:29:15.087Z,20.60
2023-05-24T16:31:41.895Z,20.60
2023-05-24T16:34:08.668Z,20.60
2023-05-24T16:36:35.486Z,20.60
2023-05-24T16:39:02.323Z,20.60
2023-05-24T16:41:35.040Z,20.60
2023-05-24T16:44:01.851Z,20.60
2023-05-24T16:46:28.623Z,20.60
2023-05-24T16:48:55.375Z,20.60
2023-05-24T16:51:22.150Z,20.60
2023-05-24T16:53:48.898Z,20.70
2023-05-24T16:56:15.793Z,20.70
2023-05-24T16:58:42.546Z,20.70
2023-05-24T17:01:09.926Z,20.70
2023-05-24T17:03:36.933Z,20.70
2023-05-24T17:06:05.369Z,20.70
2023-05-24T17:08:36.275Z,20.70
2023-05-24T17:11:04.198Z,20.70
2023-05-24T17:13:31.583Z,20.70
2023-05-24T17:15:59.880Z,20.70
2023-05-24T17:18:30.102Z,20.70
2023-05-24T17:21:01.575Z,20.80
2023-05-24T17:23:32.817Z,20.70
2023-05-24T17:26:01.378Z,20.80
2023-05-24T17:28:28.570Z,20.80
2023-05-24T17:30:56.865Z,20.80
2023-05-24T17:33:24.754Z,20.80
2023-05-24T17:35:52.231Z,20.80
2023-05-24T17:38:19.056Z,20.80
2023-05-24T17:40:46.600Z,20.80
2023-05-24T17:43:13.609Z,20.90
2023-05-24T17:45:41.064Z,20.90
2023-05-24T17:48:08.122Z,20.90
2023-05-24T17:50:34.970Z,20.90
2023-05-24T17:53:01.744Z,20.90
2023-05-24T17:55:28.542Z,20.90
2023-05-24T17:57:55.539Z,20.90
2023-05-24T18:00:22.276Z,20.90
2023-05-24T18:02:49.084Z,20.90
2023-05-24T18:05:16.543Z,21.00
2023-05-24T18:07:43.522Z,21.00
2023-05-24T18:10:10.713Z,21.00
2023-05-24T18:12:37.670Z,21.00
2023-05-24T18:15:06.003Z,21.00
2023-05-24T18:17:32.861Z,21.00
2023-05-24T18:19:59.661Z,21.00
2023-05-24T18:22:26.801Z,21.10
2023-05-24T18:24:53.872Z,21.00
2023-05-24T18:27:21.019Z,21.10
2023-05-24T18:29:47.821Z,21.00
2023-05-24T18:32:14.591Z,21.00
2023-05-24T18:34:41.345Z,21.10
2023-05-24T18:37:08.129Z,21.00
2023-05-24T18:39:35.818Z,21.00
2023-05-24T18:42:02.726Z,21.00
2023-05-24T18:44:29.599Z,20.90
2023-05-24T18:46:57.922Z,21.00
2023-05-24T18:49:24.904Z,20.90
2023-05-24T18:51:51.630Z,20.90
2023-05-24T18:54:18.348Z,20.90
2023-05-24T18:56:45.602Z,20.90
2023-05-24T18:59:12.624Z,20.90
2023-05-24T19:01:39.541Z,20.80
2023-05-24T19:04:06.313Z,20.90
2023-05-24T19:06:33.235Z,20.80
2023-05-24T19:09:00.419Z,20.80
2023-05-24T19:11:28.024Z,20.80
2023-05-24T19:13:54.731Z,20.80
2023-05-24T19:16:21.545Z,20.80
2023-05-24T19:18:48.291Z,20.80
2023-05-24T19:21:15.284Z,20.80
2023-05-24T19:23:42.304Z,20.80
2023-05-24T19:26:10.060Z,20.80
2023-05-24T19:28:37.809Z,20.80
2023-05-24T19:31:04.781Z,20.80
2023-05-24T19:33:31.570Z,20.80
2023-05-24T19:35:58.404Z,20.80
2023-05-24T19:38:26.110Z,20.90
2023-05-24T19:40:52.865Z,20.90
2023-05-24T19:43:19.582Z,20.90
2023-05-24T19:45:47.949Z,20.90
2023-05-24T19:48:14.824Z,20.90
2023-05-24T19:50:41.659Z,20.90
2023-05-24T19:53:08.894Z,20.90
2023-05-24T19:55:36.457Z,20.90
2023-05-24T19:58:03.205Z,20.90
2023-05-24T20:00:29.944Z,20.90
2023-05-24T20:02:56.793Z,20.90
2023-05-24T20:05:23.666Z,21.00
2023-05-24T20:07:50.870Z,21.00
2023-05-24T20:10:17.693Z,21.00
2023-05-24T20:12:44.515Z,21.00
2023-05-24T20:15:15.045Z,21.00
2023-05-24T20:17:42.051Z,21.00
2023-05-24T20:20:09.447Z,21.00
2023-05-24T20:22:36.330Z,21.00
2023-05-24T20:25:03.607Z,21.00
2023-05-24T20:27:30.396Z,21.00
2023-05-24T20:29:57.192Z,21.00
2023-05-24T20:32:23.962Z,21.10
2023-05-24T20:34:51.328Z,21.00
2023-05-24T20:37:18.072Z,21.00
2023-05-24T20:39:44.784Z,21.10
2023-05-24T20:42:11.556Z,21.10
2023-05-24T20:44:38.285Z,21.10
2023-05-24T20:47:05.116Z,21.10
2023-05-24T20:49:31.842Z,21.10
2023-05-24T20:51:58.592Z,21.10
2023-05-24T20:54:25.369Z,21.10
2023-05-24T20:56:52.214Z,21.10
2023-05-24T20:59:18.986Z,21.10
2023-05-24T21:01:46.170Z,21.10
2023-05-24T21:04:14.013Z,21.10
2023-05-24T21:06:40.797Z,21.10
2023-05-24T21:09:07.558Z,21.10
2023-05-24T21:11:34.294Z,21.10
2023-05-24T21:14:01.101Z,21.10
2023-05-24T21:16:28.181Z,21.10
2023-05-24T21:18:55.223Z,21.10
2023-05-24T21:21:23.487Z,21.10
2023-05-24T21:23:50.236Z,21.10
2023-05-24T21:26:17.014Z,21.10
2023-05-24T21:28:44.749Z,21.10
2023-05-24T21:31:11.589Z,21.10
2023-05-24T21:33:42.616Z,21.10
2023-05-24T21:36:10.354Z,21.10
2023-05-24T21:38:37.179Z,21.10
2023-05-24T21:41:05.108Z,21.10
2023-05-24T21:43:32.021Z,21.10
2023-05-24T21:45:58.791Z,21.10
2023-05-24T21:48:25.684Z,21.10
2023-05-24T21:50:52.507Z,21.10
2023-05-24T21:53:19.273Z,21.10
2023-05-24T21:55:46.113Z,21.10
2023-05-24T21:58:12.885Z,21.10
2023-05-24T22:00:39.844Z,21.10
2023-05-24T22:03:06.617Z,21.10
2023-05-24T22:05:33.484Z,21.10
2023-05-24T22:08:00.285Z,21.10
2023-05-24T22:10:27.189Z,21.10
2023-05-24T22:12:53.971Z,21.10
2023-05-24T22:15:20.790Z,21.10
2023-05-24T22:17:48.134Z,21.10
2023-05-24T22:20:15.016Z,21.10
2023-05-24T22:22:48.260Z,21.10
2023-05-24T22:25:19.301Z,21.10
2023-05-24T22:27:49.323Z,21.10
2023-05-24T22:30:16.927Z,21.10
2023-05-24T22:32:44.392Z,21.10
2023-05-24T22:35:11.483Z,21.10
2023-05-24T22:37:38.644Z,21.10
2023-05-24T22:40:06.037Z,21.10
2023-05-24T22:42:32.865Z,21.10
2023-05-24T22:44:59.641Z,21.10
2023-05-24T22:47:26.710Z,21.10
2023-05-24T22:49:54.081Z,21.10
2023-05-24T22:52:20.980Z,21.10
2023-05-24T22:54:47.748Z,21.10
2023-05-24T22:57:15.701Z,21.10
2023-05-24T22:59:42.742Z,21.10
2023-05-24T23:02:09.506Z,21.10
2023-05-24T23:04:37.796Z,21.10
2023-05-24T23:07:04.875Z,21.10
2023-05-24T23:09:34.901Z,21.10
2023-05-24T23:12:07.363Z,21.10
2023-05-24T23:14:38.397Z,21.10
2023-05-24T23:17:06.826Z,21.10
2023-05-24T23:19:34.136Z,21.10
2023-05-24T23:22:03.317Z,21.10
2023-05-24T23:24:31.220Z,21.00
2023-05-24T23:26:58.009Z,21.10
2023-05-24T23:29:24.885Z,21.10
2023-05-24T23:31:51.770Z,21.10
2023-05-24T23:34:18.507Z,21.00
2023-05-24T23:36:45.320Z,21.10
2023-05-24T23:39:12.597Z,21.10
2023-05-24T23:41:39.429Z,21.00
2023-05-24T23:44:06.454Z,21.10
2023-05-24T23:46:33.295Z,21.00
2023-05-24T23:49:00.419Z,21.00
2023-05-24T23:51:27.492Z,21.00
2023-05-24T23:53:54.204Z,21.00
2023-05-24T23:56:22.093Z,21.00
2023-05-24T23:58:48.831Z,21.00
